Time;durP1;ratioP1;P1;durP2;ratioP2;P2;SDS_P1;SDS_P2;PMS_P1;PMS_P2;Temp;Humidity;BMP_temperature;BMP_pressure;BME280_temperature;BME280_humidity;BME280_pressure;Samples;Min_cycle;Max_cycle;Signal;HPM_P1;HPM_P2
2022/08/08 00:02:12;;;;;;;11.12;6.17;;;;;;;11.91;62.58;101357.50;1656507;84;21138;-80
2022/08/08 00:05:07;;;;;;;15.13;6.65;;;;;;;11.87;62.70;101348.11;1665154;84;21065;-80
2022/08/08 00:08:24;;;;;;;14.85;6.08;;;;;;;11.88;62.82;101363.16;1652710;85;21027;-80
2022/08/08 00:11:19;;;;;;;9.50;5.53;;;;;;;11.85;62.93;101364.31;1653462;84;21027;-80
2022/08/08 00:13:55;;;;;;;11.18;5.08;;;;;;;11.83;63.04;101362.77;1649386;84;21686;-80
2022/08/08 00:16:43;;;;;;;11.18;5.80;;;;;;;11.78;63.12;101361.08;1651810;85;21292;-80
2022/08/08 00:19:21;;;;;;;12.37;6.25;;;;;;;11.74;63.24;101358.36;1649894;84;21034;-81
2022/08/08 00:21:52;;;;;;;13.83;7.45;;;;;;;11.73;63.36;101362.02;1654850;84;21074;-81
2022/08/08 00:24:23;;;;;;;20.62;9.75;;;;;;;11.71;63.46;101363.52;1643729;85;21086;-80
2022/08/08 00:26:54;;;;;;;31.68;14.30;;;;;;;11.67;63.53;101366.13;1626296;87;21017;-80
2022/08/08 00:29:31;;;;;;;52.88;19.45;;;;;;;11.59;63.64;101358.02;1652941;85;21804;-81
2022/08/08 00:32:01;;;;;;;28.40;12.90;;;;;;;11.57;63.74;101357.84;1653927;85;21058;-80
2022/08/08 00:35:11;;;;;;;26.25;11.78;;;;;;;11.52;63.86;101357.80;1649731;85;21086;-80
2022/08/08 00:37:41;;;;;;;;;;;;;;;11.51;63.97;101361.45;1655876;85;21019;-80
2022/08/08 00:40:28;;;;;;;20.12;8.93;;;;;;;11.49;64.11;101357.27;1649102;83;20206;-80
2022/08/08 00:43:38;;;;;;;20.95;8.88;;;;;;;11.46;64.20;101356.23;1651419;84;21120;-80
2022/08/08 00:46:28;;;;;;;19.87;9.70;;;;;;;11.41;64.31;101362.02;1644684;83;21028;-80
2022/08/08 00:49:29;;;;;;;22.50;10.95;;;;;;;11.41;64.40;101366.52;1642075;84;21705;-80
2022/08/08 00:52:41;;;;;;;19.90;9.30;;;;;;;11.39;64.50;101370.70;1659701;84;21023;-80
2022/08/08 00:55:49;;;;;;;19.12;8.65;;;;;;;11.34;64.62;101370.30;1646778;84;21478;-80
2022/08/08 00:58:43;;;;;;;20.35;10.30;;;;;;;11.35;64.76;101365.80;1659413;84;21135;-80
2022/08/08 01:01:22;;;;;;;21.52;12.15;;;;;;;11.32;64.88;101368.29;1654349;85;21079;-81
2022/08/08 01:04:21;;;;;;;20.95;12.03;;;;;;;11.28;64.99;101374.92;1653708;84;21079;-80
2022/08/08 01:07:24;;;;;;;15.53;8.95;;;;;;;11.29;65.07;101371.27;1649545;84;21480;-80
2022/08/08 01:10:21;;;;;;;18.62;10.32;;;;;;;11.30;65.19;101371.59;1639739;84;21038;-80
2022/08/08 01:12:59;;;;;;;19.27;10.95;;;;;;;11.28;65.26;101363.39;1652541;85;21146;-80
2022/08/08 01:16:05;;;;;;;15.75;8.15;;;;;;;11.22;65.34;101368.85;1661136;84;21539;-79
2022/08/08 01:19:11;;;;;;;13.72;7.55;;;;;;;11.17;65.42;101365.78;1658112;83;21046;-79
2022/08/08 01:22:16;;;;;;;12.28;7.03;;;;;;;11.11;65.57;101363.72;1653522;85;22377;-79
2022/08/08 01:24:50;;;;;;;12.80;6.90;;;;;;;11.07;65.71;101363.66;1651141;85;21042;-79
2022/08/08 01:27:52;;;;;;;16.30;7.42;;;;;;;11.05;65.83;101356.80;1653113;85;21880;-79
2022/08/08 01:31:02;;;;;;;8.78;5.92;;;;;;;11.06;65.92;101361.12;1654636;85;21189;-79
2022/08/08 01:33:51;;;;;;;10.03;5.30;;;;;;;11.02;66.03;101358.77;1653917;85;21065;-79
2022/08/08 01:36:40;;;;;;;13.48;5.95;;;;;;;10.95;66.12;101353.67;1655094;84;21024;-79
2022/08/08 01:39:53;;;;;;;15.63;5.08;;;;;;;10.92;66.20;101351.80;1655162;84;21062;-79
2022/08/08 01:42:50;;;;;;;9.00;4.25;;;;;;;10.92;66.32;101347.30;1639010;83;21141;-80
2022/08/08 01:45:55;;;;;;;10.03;4.58;;;;;;;10.93;66.37;101348.16;1643633;85;21070;-80
2022/08/08 01:48:44;;;;;;;10.85;4.10;;;;;;;10.92;66.45;101351.80;1664580;83;21130;-79
2022/08/08 01:51:50;;;;;;;12.80;5.87;;;;;;;10.86;66.53;101345.73;1640162;85;21034;-80
2022/08/08 01:54:55;;;;;;;12.65;5.53;;;;;;;10.87;66.62;101351.42;1635609;85;21016;-80
2022/08/08 01:57:41;;;;;;;13.00;6.75;;;;;;;10.85;66.70;101351.56;1651401;84;21193;-80
2022/08/08 02:00:21;;;;;;;12.40;5.95;;;;;;;10.82;66.74;101359.02;1655061;84;21054;-80
2022/08/08 02:02:57;;;;;;;;;;;;;;;10.77;66.80;101355.94;1656429;85;21086;-80
2022/08/08 02:05:52;;;;;;;12.90;6.58;;;;;;;10.76;66.90;101360.47;1673667;83;20215;-80
2022/08/08 02:08:44;;;;;;;14.55;7.72;;;;;;;10.78;66.94;101350.47;1646115;85;21018;-80
2022/08/08 02:11:30;;;;;;;17.92;8.35;;;;;;;10.79;67.00;101352.16;1627481;86;21040;-80
2022/08/08 02:14:05;;;;;;;12.78;7.17;;;;;;;10.75;67.07;101356.59;1648333;84;21003;-80
2022/08/08 02:17:19;;;;;;;11.05;6.22;;;;;;;10.76;67.13;101359.62;1653391;83;21063;-80
2022/08/08 02:19:50;;;;;;;10.38;5.22;;;;;;;10.75;67.20;101361.93;1653011;85;20982;-80
2022/08/08 02:22:38;;;;;;;9.80;6.12;;;;;;;10.72;67.27;101360.41;1650687;85;21019;-80
2022/08/08 02:25:41;;;;;;;9.25;5.50;;;;;;;10.72;67.31;101367.56;1683206;83;21149;-80
2022/08/08 02:28:28;;;;;;;10.93;5.17;;;;;;;10.69;67.39;101373.20;1661604;84;21680;-80
2022/08/08 02:31:24;;;;;;;10.98;5.62;;;;;;;10.66;67.50;101377.50;1630679;85;21560;-80
2022/08/08 02:34:10;;;;;;;10.93;5.85;;;;;;;10.63;67.58;101371.09;1664802;84;21054;-79
2022/08/08 02:36:41;;;;;;;11.45;6.15;;;;;;;10.60;67.66;101373.57;1655054;84;21512;-79
2022/08/08 02:39:38;;;;;;;11.70;6.10;;;;;;;10.58;67.74;101364.05;1677328;83;21457;-79
2022/08/08 02:42:46;;;;;;;14.28;5.80;;;;;;;10.53;67.81;101359.98;1656438;84;21338;-80
2022/08/08 02:45:47;;;;;;;8.40;5.47;;;;;;;10.48;67.91;101364.90;1662481;84;21171;-79
2022/08/08 02:48:45;;;;;;;7.05;4.05;;;;;;;10.38;68.05;101364.58;1663251;84;21103;-80
2022/08/08 02:51:52;;;;;;;13.62;4.40;;;;;;;10.37;68.16;101372.25;1664133;83;21149;-79
2022/08/08 02:54:46;;;;;;;10.53;4.30;;;;;;;10.33;68.27;101370.38;1656210;84;21561;-79
2022/08/08 02:57:41;;;;;;;9.43;4.17;;;;;;;10.34;68.35;101373.39;1655080;85;21432;-79
2022/08/08 03:00:37;;;;;;;13.60;4.50;;;;;;;10.31;68.42;101375.51;1662055;83;21555;-79
2022/08/08 03:03:45;;;;;;;7.85;4.37;;;;;;;10.31;68.52;101378.17;1665683;83;21078;-79
2022/08/08 03:06:58;;;;;;;11.20;4.28;;;;;;;10.33;68.60;101370.38;1663120;84;21055;-79
2022/08/08 03:10:07;;;;;;;7.00;4.22;;;;;;;10.34;68.65;101372.55;1674833;83;21367;-79
2022/08/08 03:13:09;;;;;;;11.40;4.10;;;;;;;10.32;68.70;101370.02;1681183;83;21062;-79
2022/08/08 03:16:08;;;;;;;20.70;4.85;;;;;;;10.28;68.76;101367.28;1651051;85;21023;-79
2022/08/08 03:19:14;;;;;;;15.60;4.92;;;;;;;10.24;68.83;101372.55;1657812;84;21991;-79
2022/08/08 03:21:40;;;;;;;48.28;6.03;;;;;;;10.24;68.91;101368.55;1659404;84;21040;-79
2022/08/08 03:24:07;;;;;;;13.10;4.72;;;;;;;10.23;68.98;101366.89;1656780;84;21505;-80
2022/08/08 03:26:38;;;;;;;7.15;4.22;;;;;;;10.26;69.04;101369.75;1657420;84;21062;-79
2022/08/08 03:29:08;;;;;;;15.75;4.80;;;;;;;10.25;69.08;101368.06;1657985;84;21602;-79
2022/08/08 03:34:18;;;;;;;66.82;7.65;;;;;;;10.26;69.19;101373.75;1642722;85;21066;-80
2022/08/08 03:36:45;;;;;;;61.65;6.22;;;;;;;10.31;69.22;101373.66;1650128;85;21288;-80
2022/08/08 03:39:13;;;;;;;37.93;5.65;;;;;;;10.31;69.26;101375.51;1655012;84;21016;-80
2022/08/08 03:41:39;;;;;;;18.35;4.83;;;;;;;10.28;69.34;101379.28;1658617;84;21060;-80
2022/08/08 03:44:06;;;;;;;9.35;4.37;;;;;;;10.32;69.40;101383.34;1645683;85;21130;-79
2022/08/08 03:46:47;;;;;;;9.98;4.25;;;;;;;10.30;69.48;101378.66;1653132;85;21546;-80
2022/08/08 03:49:22;;;;;;;9.93;4.50;;;;;;;10.33;69.53;101381.03;1641230;85;21186;-80
2022/08/08 03:51:55;;;;;;;13.28;4.45;;;;;;;10.37;69.57;101378.44;1652654;84;21024;-80
2022/08/08 03:54:21;;;;;;;12.35;3.98;;;;;;;10.34;69.61;101382.73;1654589;85;21030;-80
2022/08/08 03:56:47;;;;;;;6.62;4.20;;;;;;;10.35;69.65;101391.05;1653455;85;21019;-80
2022/08/08 03:59:13;;;;;;;10.30;5.00;;;;;;;10.41;69.71;101387.80;1663008;83;21071;-80
2022/08/08 04:01:40;;;;;;;6.90;3.75;;;;;;;10.47;69.73;101387.24;1650339;85;21896;-80
2022/08/08 04:04:07;;;;;;;10.63;3.92;;;;;;;10.51;69.77;101393.97;1648413;84;21074;-80
2022/08/08 04:06:33;;;;;;;11.68;3.62;;;;;;;10.49;69.78;101394.59;1651092;85;21114;-80
2022/08/08 04:09:03;;;;;;;10.32;4.10;;;;;;;10.54;69.84;101402.16;1652876;84;21488;-80
2022/08/08 04:11:34;;;;;;;;;;;;;;;10.61;69.88;101401.09;1654869;85;21082;-80
2022/08/08 04:14:00;;;;;;;13.72;3.83;;;;;;;11.13;70.26;101407.11;1650801;84;21137;-80
2022/08/08 04:16:27;;;;;;;7.12;3.55;;;;;;;12.21;70.35;101401.70;1656032;85;20984;-79
2022/08/08 04:18:53;;;;;;;7.90;3.10;;;;;;;13.26;70.06;101399.11;1653943;85;21091;-79
2022/08/08 04:21:19;;;;;;;8.98;2.98;;;;;;;14.38;69.69;101404.76;1652029;85;21061;-79
2022/08/08 04:23:46;;;;;;;8.03;3.35;;;;;;;15.44;69.15;101406.06;1648184;84;21589;-80
2022/08/08 04:26:12;;;;;;;6.28;3.33;;;;;;;16.47;68.44;101398.69;1651378;85;21200;-80
2022/08/08 04:28:38;;;;;;;5.80;3.25;;;;;;;17.36;67.63;101405.75;1647784;85;21145;-80
2022/08/08 04:31:05;;;;;;;9.30;3.35;;;;;;;18.03;66.85;101406.80;1652857;85;21055;-80
2022/08/08 04:33:31;;;;;;;11.60;3.25;;;;;;;18.52;65.95;101402.75;1648920;85;21150;-80
2022/08/08 04:35:57;;;;;;;12.98;3.37;;;;;;;18.80;65.00;101408.12;1659856;83;21107;-80
2022/08/08 04:38:24;;;;;;;14.40;5.00;;;;;;;19.18;64.04;101409.37;1651865;85;21219;-80
2022/08/08 04:40:50;;;;;;;9.18;4.17;;;;;;;19.70;63.02;101413.34;1648911;84;21094;-80
2022/08/08 04:43:16;;;;;;;5.58;2.75;;;;;;;20.51;61.92;101405.92;1649354;85;21102;-80
2022/08/08 04:45:42;;;;;;;22.05;3.37;;;;;;;21.02;60.66;101413.61;1646686;85;21519;-80
2022/08/08 04:48:08;;;;;;;17.67;4.15;;;;;;;21.15;59.70;101405.45;1656812;84;21572;-80
2022/08/08 04:50:34;;;;;;;9.95;3.50;;;;;;;21.57;58.71;101405.91;1659574;83;21172;-80
2022/08/08 04:53:00;;;;;;;6.97;3.35;;;;;;;22.31;57.40;101415.00;1655575;84;21054;-80
2022/08/08 04:55:26;;;;;;;34.65;4.15;;;;;;;22.83;56.11;101415.61;1645886;85;21074;-80
2022/08/08 04:57:52;;;;;;;21.82;3.22;;;;;;;22.65;54.76;101420.46;1650347;85;21138;-80
2022/08/08 05:00:19;;;;;;;15.23;2.55;;;;;;;21.91;53.49;101427.24;1644358;84;21081;-80
2022/08/08 05:02:45;;;;;;;11.12;3.00;;;;;;;21.09;53.43;101425.28;1645546;85;21977;-81
2022/08/08 05:05:11;;;;;;;6.08;3.00;;;;;;;20.52;53.78;101423.83;1649196;84;21573;-81
2022/08/08 05:07:39;;;;;;;9.73;3.15;;;;;;;20.19;53.90;101426.02;1649037;84;21472;-81
2022/08/08 05:10:06;;;;;;;11.63;3.12;;;;;;;20.12;53.91;101425.69;1665207;83;21038;-82
2022/08/08 05:12:32;;;;;;;10.78;3.40;;;;;;;20.12;53.83;101433.30;1654995;84;21102;-81
2022/08/08 05:14:58;;;;;;;22.77;4.62;;;;;;;20.34;53.73;101432.06;1657994;84;21123;-81
2022/08/08 05:17:24;;;;;;;8.78;3.52;;;;;;;20.67;53.49;101439.34;1665898;84;21069;-82
2022/08/08 05:19:50;;;;;;;18.75;4.67;;;;;;;20.84;53.26;101432.44;1654811;85;22213;-82
2022/08/08 05:22:17;;;;;;;10.05;4.60;;;;;;;20.89;53.12;101436.72;1650543;85;21050;-82
2022/08/08 05:24:43;;;;;;;11.43;4.62;;;;;;;21.14;52.88;101433.66;1653970;84;21043;-82
2022/08/08 05:27:09;;;;;;;17.17;6.78;;;;;;;21.22;52.67;101436.11;1655457;84;21163;-81
2022/08/08 05:29:36;;;;;;;17.40;5.47;;;;;;;21.40;52.45;101441.68;1644941;84;21071;-82
2022/08/08 05:32:04;;;;;;;10.48;7.20;;;;;;;21.66;52.09;101446.16;1650082;85;21032;-81
2022/08/08 05:34:38;;;;;;;16.10;6.20;;;;;;;21.91;51.79;101446.25;1647713;85;21063;-81
2022/08/08 05:37:06;;;;;;;14.83;5.50;;;;;;;22.15;51.48;101444.63;1644055;85;21079;-81
2022/08/08 05:39:32;;;;;;;10.58;5.40;;;;;;;22.26;51.15;101444.75;1644262;84;21224;-81
2022/08/08 05:41:58;;;;;;;8.45;3.35;;;;;;;22.32;50.88;101441.66;1659861;83;21111;-81
2022/08/08 05:44:29;;;;;;;17.05;4.90;;;;;;;22.43;50.67;101442.30;1652270;85;21011;-81
2022/08/08 05:46:57;;;;;;;7.17;2.92;;;;;;;22.69;50.26;101450.80;1653129;85;21012;-82
2022/08/08 05:49:23;;;;;;;9.83;3.65;;;;;;;22.86;49.84;101451.88;1657798;84;21551;-81
2022/08/08 05:51:50;;;;;;;10.75;3.08;;;;;;;23.05;49.47;101452.17;1649119;85;21183;-81
2022/08/08 05:54:17;;;;;;;11.60;3.45;;;;;;;23.13;49.09;101456.49;1656511;85;21015;-82
2022/08/08 05:56:43;;;;;;;12.25;3.87;;;;;;;23.25;48.58;101457.41;1652544;84;21026;-82
2022/08/08 05:59:18;;;;;;;12.37;3.40;;;;;;;23.35;48.23;101456.34;1645829;84;21101;-82
2022/08/08 06:01:55;;;;;;;4.22;2.70;;;;;;;23.40;47.85;101456.47;1659977;83;21086;-82
2022/08/08 06:04:26;;;;;;;8.93;2.77;;;;;;;23.28;47.55;101451.52;1657056;84;21504;-81
2022/08/08 06:07:02;;;;;;;3.45;2.50;;;;;;;23.17;47.26;101449.02;1646977;85;21271;-82
2022/08/08 06:09:33;;;;;;;10.03;3.05;;;;;;;23.23;47.00;101448.62;1653123;83;21023;-82
2022/08/08 06:12:01;;;;;;;4.67;2.40;;;;;;;23.43;46.67;101453.87;1658180;85;21570;-81
2022/08/08 06:14:28;;;;;;;8.28;1.80;;;;;;;23.42;46.30;101453.05;1649841;85;21114;-82
2022/08/08 06:16:59;;;;;;;4.75;1.50;;;;;;;23.24;46.10;101455.73;1649064;85;21425;-82
2022/08/08 06:19:25;;;;;;;5.37;2.00;;;;;;;23.21;45.89;101457.03;1651052;84;21113;-82
2022/08/08 06:21:52;;;;;;;4.15;1.92;;;;;;;23.23;45.63;101456.79;1646376;84;21019;-81
2022/08/08 06:24:18;;;;;;;3.85;1.92;;;;;;;23.36;45.36;101457.46;1645799;85;21089;-82
2022/08/08 06:26:52;;;;;;;4.10;1.98;;;;;;;23.52;45.11;101456.05;1657783;83;21018;-82
2022/08/08 06:29:29;;;;;;;8.18;1.77;;;;;;;23.63;44.83;101455.81;1663374;83;21479;-81
2022/08/08 06:32:02;;;;;;;3.85;1.82;;;;;;;23.72;44.59;101461.22;1654481;83;21465;-82
2022/08/08 06:34:33;;;;;;;3.55;1.67;;;;;;;23.68;44.31;101454.59;1660641;84;21471;-82
2022/08/08 06:36:59;;;;;;;4.90;1.27;;;;;;;23.71;44.15;101454.14;1672003;83;21566;-82
2022/08/08 06:39:25;;;;;;;6.05;1.87;;;;;;;23.85;43.75;101461.06;1674706;84;21016;-82
2022/08/08 06:41:57;;;;;;;5.42;1.77;;;;;;;23.97;43.49;101457.83;1663385;83;21608;-82
2022/08/08 06:44:24;;;;;;;126.53;13.03;;;;;;;24.04;43.23;101457.20;1658507;83;21094;-82
2022/08/08 06:46:51;;;;;;;3.08;1.30;;;;;;;24.03;42.89;101458.25;1647131;84;21082;-82
2022/08/08 06:49:18;;;;;;;3.58;2.00;;;;;;;24.09;42.64;101449.17;1652568;85;21030;-82
2022/08/08 06:51:44;;;;;;;4.53;1.90;;;;;;;24.08;42.34;101454.31;1662273;83;21014;-82
2022/08/08 06:54:11;;;;;;;2.42;1.60;;;;;;;24.23;42.26;101462.92;1654085;85;21640;-82
2022/08/08 06:56:38;;;;;;;6.53;1.80;;;;;;;24.27;42.07;101456.47;1644573;84;21039;-82
2022/08/08 06:59:04;;;;;;;2.98;1.42;;;;;;;24.22;41.94;101454.44;1649952;84;20960;-82
2022/08/08 07:01:50;;;;;;;4.67;1.82;;;;;;;24.26;41.84;101457.53;1667255;83;21559;-82
2022/08/08 07:04:37;;;;;;;6.62;1.57;;;;;;;24.47;41.65;101448.78;1659780;84;21016;-82
2022/08/08 07:07:03;;;;;;;3.30;2.25;;;;;;;24.58;41.33;101453.95;1650765;84;21919;-82
2022/08/08 07:09:36;;;;;;;6.85;2.10;;;;;;;24.57;41.08;101455.84;1660154;84;21010;-83
2022/08/08 07:12:02;;;;;;;5.30;1.42;;;;;;;24.65;40.90;101453.30;1662854;84;21095;-83
2022/08/08 07:14:43;;;;;;;3.27;1.75;;;;;;;24.67;40.62;101456.61;1668063;84;21030;-82
2022/08/08 07:17:16;;;;;;;1.35;1.15;;;;;;;24.66;40.40;101450.35;1653324;85;21038;-82
2022/08/08 07:19:51;;;;;;;7.03;1.65;;;;;;;24.39;40.11;101458.67;1657686;83;22377;-83
2022/08/08 07:22:22;;;;;;;4.25;1.37;;;;;;;24.43;39.95;101457.66;1652047;83;21037;-84
2022/08/08 07:25:01;;;;;;;5.47;1.40;;;;;;;24.63;39.77;101455.45;1662793;83;22213;-83
2022/08/08 07:27:31;;;;;;;6.40;1.30;;;;;;;24.81;39.50;101461.59;1649869;83;21122;-83
2022/08/08 07:29:57;;;;;;;1.98;1.20;;;;;;;24.70;39.25;101455.60;1662064;83;21173;-81
2022/08/08 07:32:23;;;;;;;4.78;2.45;;;;;;;24.67;39.05;101457.98;1654107;84;21754;-81
2022/08/08 07:34:49;;;;;;;8.05;1.80;;;;;;;24.70;38.89;101453.44;1653517;83;21004;-83
2022/08/08 07:37:15;;;;;;;2.77;1.35;;;;;;;24.76;38.58;101457.94;1648408;84;21495;-82
2022/08/08 07:39:42;;;;;;;7.75;1.37;;;;;;;24.80;38.38;101455.88;1656289;84;21030;-82
2022/08/08 07:42:10;;;;;;;2.98;1.17;;;;;;;24.78;38.22;101453.89;1662557;83;21067;-82
2022/08/08 07:44:36;;;;;;;136.35;17.25;;;;;;;24.77;38.03;101452.78;1644332;83;21729;-81
2022/08/08 07:47:02;;;;;;;4.97;1.57;;;;;;;24.65;37.83;101458.23;1646185;85;21089;-80
2022/08/08 07:49:28;;;;;;;2.47;0.90;;;;;;;24.81;37.83;101455.30;1653395;84;21482;-81
2022/08/08 07:51:54;;;;;;;3.98;1.12;;;;;;;24.84;37.52;101462.52;1648455;84;21763;-81
2022/08/08 07:54:32;;;;;;;3.55;1.40;;;;;;;24.89;37.43;101457.72;1646852;85;20974;-80
2022/08/08 07:57:03;;;;;;;2.25;1.32;;;;;;;24.95;37.39;101464.11;1647263;84;22434;-81
2022/08/08 07:59:34;;;;;;;3.08;1.40;;;;;;;24.97;37.20;101458.73;1649183;85;21065;-81
2022/08/08 08:02:01;;;;;;;1.72;1.32;;;;;;;25.06;37.09;101453.19;1649347;84;21570;-81
2022/08/08 08:04:34;;;;;;;4.10;1.95;;;;;;;24.97;36.91;101460.09;1594972;87;21686;-83
2022/08/08 08:07:00;;;;;;;4.60;1.50;;;;;;;24.97;36.97;101457.36;1662630;83;20939;-83
2022/08/08 08:09:30;;;;;;;1.47;1.32;;;;;;;25.25;36.85;101457.44;1637635;85;22493;-82
2022/08/08 08:11:58;;;;;;;4.50;1.20;;;;;;;25.25;36.51;101462.06;1645577;84;21558;-83
2022/08/08 08:14:41;;;;;;;3.25;1.62;;;;;;;25.28;36.39;101465.14;1650206;84;21025;-82
2022/08/08 08:17:07;;;;;;;4.12;1.37;;;;;;;25.40;36.22;101463.77;1633719;85;21511;-81
2022/08/08 08:19:33;;;;;;;1.72;1.30;;;;;;;25.51;36.10;101466.20;1636266;85;20956;-82
2022/08/08 08:21:59;;;;;;;3.37;1.35;;;;;;;25.45;35.88;101464.37;1648302;85;21854;-84
2022/08/08 08:24:25;;;;;;;2.60;1.40;;;;;;;25.33;35.79;101465.23;1677301;83;21059;-82
2022/08/08 08:26:52;;;;;;;2.10;1.42;;;;;;;25.38;35.68;101467.25;1652333;84;21101;-83
2022/08/08 08:29:18;;;;;;;3.75;1.52;;;;;;;25.33;35.58;101473.42;1650368;85;20919;-83
2022/08/08 08:31:44;;;;;;;2.05;1.17;;;;;;;25.31;35.57;101471.48;1650095;84;21003;-84
2022/08/08 08:34:11;;;;;;;7.55;1.22;;;;;;;25.45;35.64;101478.04;1661567;83;22449;-84
2022/08/08 08:36:37;;;;;;;15.50;3.40;;;;;;;25.41;35.53;101471.39;1667375;83;20993;-84
2022/08/08 08:39:03;;;;;;;3.98;1.27;;;;;;;25.44;35.50;101470.94;1673469;83;21209;-83
2022/08/08 08:41:29;;;;;;;2.12;1.30;;;;;;;25.62;35.38;101478.96;1672252;83;21141;-84
2022/08/08 08:43:55;;;;;;;3.02;1.50;;;;;;;25.54;35.29;101469.80;1678534;83;21479;-83
2022/08/08 08:46:21;;;;;;;1.70;1.10;;;;;;;25.46;35.16;101474.24;1659559;84;21857;-83
2022/08/08 08:48:47;;;;;;;3.55;1.30;;;;;;;25.26;34.89;101479.56;1653099;83;21496;-83
2022/08/08 08:51:15;;;;;;;6.33;1.70;;;;;;;25.32;34.91;101475.89;1668507;84;20998;-84
2022/08/08 08:53:52;;;;;;;5.00;1.00;;;;;;;25.48;34.83;101472.08;1656401;83;21110;-81
2022/08/08 08:56:19;;;;;;;5.00;1.40;;;;;;;25.49;34.66;101471.02;1666990;83;20939;-82
2022/08/08 08:58:47;;;;;;;14.93;1.52;;;;;;;25.54;34.78;101473.91;1654722;84;21734;-82
2022/08/08 09:01:15;;;;;;;15.38;1.57;;;;;;;25.58;34.61;101467.69;1649805;85;21174;-82
2022/08/08 09:03:47;;;;;;;2.55;1.35;;;;;;;25.55;34.44;101476.91;1648516;85;21122;-82
2022/08/08 09:06:26;;;;;;;1.17;1.07;;;;;;;25.40;34.33;101467.02;1662852;84;20931;-82
2022/08/08 09:09:19;;;;;;;3.83;1.67;;;;;;;25.28;34.25;101467.87;1666032;83;20943;-82
2022/08/08 09:11:46;;;;;;;4.08;1.60;;;;;;;25.12;34.24;101465.87;1651202;83;21963;-81
2022/08/08 09:14:12;;;;;;;1.67;1.20;;;;;;;25.09;34.12;101467.72;1663288;83;21484;-81
2022/08/08 09:16:38;;;;;;;4.95;1.32;;;;;;;25.30;34.14;101471.19;1676586;83;21015;-80
2022/08/08 09:19:06;;;;;;;3.50;1.35;;;;;;;25.25;33.96;101465.62;1657063;84;21034;-82
2022/08/08 09:21:32;;;;;;;2.90;1.30;;;;;;;25.17;33.91;101468.72;1653852;84;20971;-79
2022/08/08 09:23:58;;;;;;;2.05;1.40;;;;;;;25.26;34.01;101467.27;1648484;85;21766;-80
2022/08/08 09:26:57;;;;;;;1.12;1.00;;;;;;;25.26;33.86;101466.47;1629625;86;21042;-83
2022/08/08 09:29:23;;;;;;;4.97;1.10;;;;;;;25.22;33.96;101466.12;1646633;84;21015;-78
2022/08/08 09:31:56;;;;;;;10.32;2.20;;;;;;;25.42;33.93;101464.87;1665447;84;21019;-77
2022/08/08 09:34:24;;;;;;;4.80;1.30;;;;;;;25.10;33.81;101465.29;1658499;83;21038;-76
2022/08/08 09:36:54;;;;;;;6.85;1.37;;;;;;;25.13;34.06;101474.37;1670077;83;21810;-77
2022/08/08 09:39:20;;;;;;;2.33;1.00;;;;;;;25.16;33.95;101460.23;1651485;84;21541;-77
2022/08/08 09:42:01;;;;;;;2.95;1.50;;;;;;;25.25;34.07;101468.36;1652232;85;21037;-77
2022/08/08 09:44:39;;;;;;;6.08;1.50;;;;;;;25.63;34.11;101461.50;1658521;85;21062;-77
2022/08/08 09:47:06;;;;;;;2.77;1.00;;;;;;;26.03;34.03;101467.75;1686915;83;21066;-79
2022/08/08 09:49:34;;;;;;;5.87;1.25;;;;;;;25.87;33.60;101465.80;1647345;84;21842;-78
2022/08/08 09:52:01;;;;;;;2.17;0.80;;;;;;;25.80;33.54;101459.65;1667387;83;21526;-77
2022/08/08 09:54:41;;;;;;;1.95;1.30;;;;;;;25.85;33.35;101458.39;1675988;83;21057;-78
2022/08/08 09:57:09;;;;;;;3.72;1.52;;;;;;;25.83;33.18;101453.69;1666203;83;21016;-78
2022/08/08 09:59:35;;;;;;;4.47;1.57;;;;;;;25.34;33.06;101452.41;1656527;84;21027;-78
2022/08/08 10:02:02;;;;;;;1.90;1.27;;;;;;;25.07;33.14;101456.22;1655989;85;22546;-78
2022/08/08 10:04:28;;;;;;;4.55;1.40;;;;;;;24.79;33.26;101464.28;1662795;84;21102;-80
2022/08/08 10:06:54;;;;;;;13.78;1.50;;;;;;;24.42;33.38;101466.94;1683373;83;21641;-77
2022/08/08 10:09:29;;;;;;;3.98;1.47;;;;;;;24.56;33.64;101460.99;1619885;86;21177;-77
2022/08/08 10:11:55;;;;;;;3.72;1.30;;;;;;;24.90;33.70;101458.02;1650410;85;21475;-78
2022/08/08 10:14:32;;;;;;;5.28;1.40;;;;;;;25.32;33.63;101453.20;1647412;84;21758;-78
2022/08/08 10:16:58;;;;;;;4.25;1.22;;;;;;;25.52;33.49;101459.64;1649812;85;20999;-78
2022/08/08 10:19:39;;;;;;;3.02;1.12;;;;;;;25.62;33.39;101459.84;1660511;83;20998;-78
2022/08/08 10:22:07;;;;;;;3.85;1.20;;;;;;;25.45;33.17;101460.28;1648186;84;21162;-78
2022/08/08 10:24:33;;;;;;;4.15;1.25;;;;;;;25.07;33.09;101449.39;1654799;84;20928;-77
2022/08/08 10:27:05;;;;;;;3.98;1.40;;;;;;;24.58;33.02;101458.05;1643258;85;21575;-77
2022/08/08 10:29:43;;;;;;;2.17;1.47;;;;;;;24.36;33.19;101455.89;1649371;84;21016;-77
2022/08/08 10:35:00;;;;;;;4.92;1.60;;;;;;;25.00;33.26;101454.16;1653553;84;21030;-78
2022/08/08 10:37:32;;;;;;;2.67;1.30;;;;;;;25.18;33.01;101446.34;1654978;84;21120;-77
2022/08/08 10:40:00;;;;;;;3.98;1.60;;;;;;;25.31;32.81;101451.00;1648047;85;22650;-77
2022/08/08 10:42:35;;;;;;;1.77;1.12;;;;;;;25.33;32.63;101450.22;1651160;85;21078;-77
2022/08/08 10:45:04;;;;;;;4.20;1.80;;;;;;;25.39;32.45;101461.25;1652184;84;21082;-81
2022/08/08 10:47:30;;;;;;;1.92;1.10;;;;;;;25.37;32.46;101453.29;1649688;83;21459;-81
2022/08/08 10:50:01;;;;;;;3.98;1.50;;;;;;;25.48;32.48;101444.77;1660574;83;21607;-81
2022/08/08 10:52:30;;;;;;;2.90;1.47;;;;;;;25.68;32.48;101445.22;1656619;83;21785;-80
2022/08/08 10:54:58;;;;;;;;;;;;;;;25.87;32.46;101439.83;1653330;83;20946;-81
2022/08/08 10:57:24;;;;;;;34.53;5.50;;;;;;;25.76;32.32;101439.34;1660011;85;20286;-80
2022/08/08 10:59:56;;;;;;;5.15;2.35;;;;;;;25.78;32.30;101435.31;1653131;85;21442;-81
2022/08/08 11:02:26;;;;;;;2.77;1.17;;;;;;;25.91;32.29;101434.17;1652532;84;21516;-80
2022/08/08 11:04:59;;;;;;;1.92;1.47;;;;;;;25.94;32.21;101429.56;1664001;84;22385;-80
2022/08/08 11:07:38;;;;;;;4.75;1.12;;;;;;;26.11;32.11;101431.78;1648322;85;21100;-80
2022/08/08 11:10:08;;;;;;;1.67;0.98;;;;;;;25.94;31.90;101430.10;1650092;84;21273;-79
2022/08/08 11:12:51;;;;;;;4.80;1.37;;;;;;;25.55;32.00;101435.92;1662431;84;20958;-80
2022/08/08 11:15:20;;;;;;;2.22;1.47;;;;;;;25.26;32.16;101437.80;1650373;85;21134;-80
2022/08/08 11:17:47;;;;;;;2.20;1.32;;;;;;;25.12;32.17;101434.47;1659377;85;21690;-80
2022/08/08 11:20:23;;;;;;;5.62;1.35;;;;;;;24.98;32.31;101425.45;1653080;85;21050;-80
2022/08/08 11:22:56;;;;;;;3.40;1.42;;;;;;;24.78;32.41;101433.95;1650451;83;21277;-80
2022/08/08 11:25:28;;;;;;;3.47;1.87;;;;;;;24.78;32.65;101429.86;1655243;83;21165;-80
2022/08/08 11:27:56;;;;;;;6.22;1.20;;;;;;;24.73;32.76;101431.97;1649637;85;21075;-80
2022/08/08 11:30:24;;;;;;;3.12;1.82;;;;;;;24.60;32.82;101424.52;1646419;84;21609;-81
2022/08/08 11:32:52;;;;;;;4.10;1.50;;;;;;;24.59;32.97;101424.25;1640945;84;21024;-80
2022/08/08 11:35:20;;;;;;;384.50;45.40;;;;;;;24.47;32.98;101417.42;1598221;87;21093;-80
2022/08/08 11:37:47;;;;;;;6.10;2.33;;;;;;;24.41;33.13;101425.72;1650613;84;21089;-81
2022/08/08 11:40:13;;;;;;;7.55;1.60;;;;;;;24.40;33.23;101418.06;1651482;84;21158;-80
2022/08/08 11:42:40;;;;;;;3.00;1.30;;;;;;;24.43;33.31;101415.39;1672844;84;21523;-80
2022/08/08 11:45:07;;;;;;;4.62;2.00;;;;;;;24.44;33.30;101416.53;1657964;84;21113;-79
2022/08/08 11:47:34;;;;;;;4.28;1.30;;;;;;;24.41;33.26;101414.81;1650871;85;21523;-81
2022/08/08 11:50:09;;;;;;;3.60;1.80;;;;;;;24.32;33.26;101408.33;1670532;84;21024;-80
2022/08/08 11:52:36;;;;;;;23.20;4.45;;;;;;;24.30;33.27;101409.12;1647735;84;21059;-80
2022/08/08 11:55:17;;;;;;;2.90;1.45;;;;;;;24.47;33.39;101412.50;1673503;83;21555;-80
2022/08/08 11:57:44;;;;;;;2.33;1.40;;;;;;;24.56;33.27;101413.81;1666016;84;21561;-80
2022/08/08 12:00:16;;;;;;;11.00;1.67;;;;;;;24.48;33.28;101406.81;1660465;83;21522;-79
2022/08/08 12:02:53;;;;;;;6.55;1.77;;;;;;;24.83;33.34;101404.93;1674147;83;21086;-79
2022/08/08 12:05:17;;;;;;;2.58;1.50;;;;;;;25.22;33.25;101406.04;1681347;83;21038;-81